Terminal Aerodrome Forecast
Issued by NWS Quad Cities IA IL

Home | Current Version | Previous Version | Text Only | Print | Product List | Glossary On
Versions: 1 2 3 4 5 6 7 8 9 10 11 12 13 14 15 16 17 18 19 20 21 22 23 24 25 26 27 28 29
458
FTUS43 KDVN 281333 AAA
TAFMLI
TAF AMD
KMLI 281333Z 2814/2912 34012KT P6SM OVC022
     FM281900 35014G20KT P6SM BKN035
     FM290000 36009KT P6SM SCT040=

USA.gov is the U.S. government's official web portal to all federal, state and local government web resources and services.